createdAt,value
2018-09-26T00:01:54.833Z,7.87
2018-09-26T00:04:27.146Z,7.74
2018-09-26T00:06:57.530Z,7.60
2018-09-26T00:09:27.961Z,7.51
2018-09-26T00:11:57.662Z,7.50
2018-09-26T00:14:27.479Z,7.57
2018-09-26T00:16:57.240Z,7.48
2018-09-26T00:19:27.257Z,7.48
2018-09-26T00:21:57.208Z,7.47
2018-09-26T00:24:26.894Z,7.38
2018-09-26T00:26:56.694Z,7.22
2018-09-26T00:29:26.392Z,7.09
2018-09-26T00:31:56.160Z,6.96
2018-09-26T00:34:25.968Z,6.88
2018-09-26T00:36:55.703Z,6.74
2018-09-26T00:39:25.441Z,6.61
2018-09-26T00:41:55.057Z,6.57
2018-09-26T00:44:24.784Z,6.58
2018-09-26T00:46:54.575Z,6.58
2018-09-26T00:49:24.345Z,6.53
2018-09-26T00:51:54.124Z,6.56
2018-09-26T00:54:23.793Z,6.48
2018-09-26T00:56:53.610Z,6.39
2018-09-26T00:59:23.349Z,6.31
2018-09-26T01:01:53.133Z,6.19
2018-09-26T01:04:22.771Z,6.10
2018-09-26T01:06:52.606Z,6.01
2018-09-26T01:09:22.489Z,5.91
2018-09-26T01:11:52.437Z,5.88
2018-09-26T01:14:22.073Z,5.79
2018-09-26T01:16:51.770Z,5.79
2018-09-26T01:19:22.314Z,5.83
2018-09-26T01:21:51.979Z,5.81
2018-09-26T01:24:21.610Z,5.87
2018-09-26T01:26:51.365Z,5.93
2018-09-26T01:29:21.230Z,5.96
2018-09-26T01:31:51.001Z,5.95
2018-09-26T01:34:20.667Z,5.93
2018-09-26T01:36:50.392Z,5.95
2018-09-26T01:39:20.093Z,5.89
2018-09-26T01:41:49.908Z,5.85
2018-09-26T01:44:19.691Z,5.95
2018-09-26T01:46:49.469Z,5.95
2018-09-26T01:49:19.161Z,5.92
2018-09-26T01:51:48.810Z,6.04
2018-09-26T01:54:18.455Z,6.03
2018-09-26T01:56:48.285Z,6.17
2018-09-26T01:59:17.898Z,6.21
2018-09-26T02:01:47.665Z,6.11
2018-09-26T02:04:17.296Z,5.99
2018-09-26T02:06:46.985Z,5.85
2018-09-26T02:09:16.638Z,5.78
2018-09-26T02:11:46.408Z,5.68
2018-09-26T02:14:16.220Z,5.61
2018-09-26T02:16:45.894Z,5.51
2018-09-26T02:19:15.553Z,5.46
2018-09-26T02:21:45.377Z,5.43
2018-09-26T02:24:15.102Z,5.30
2018-09-26T02:26:44.826Z,5.14
2018-09-26T02:29:14.528Z,5.20
2018-09-26T02:31:44.293Z,5.26
2018-09-26T02:34:14.010Z,5.24
2018-09-26T02:36:43.677Z,5.23
2018-09-26T02:39:13.621Z,5.42
2018-09-26T02:41:43.401Z,5.40
2018-09-26T02:44:13.098Z,5.36
2018-09-26T02:46:42.740Z,5.41
2018-09-26T02:49:12.559Z,5.40
2018-09-26T02:51:42.250Z,5.39
2018-09-26T02:54:12.060Z,5.32
2018-09-26T02:56:41.757Z,5.31
2018-09-26T02:59:11.587Z,5.32
2018-09-26T03:01:41.257Z,5.47
2018-09-26T03:04:10.921Z,5.53
2018-09-26T03:06:40.571Z,5.52
2018-09-26T03:09:11.105Z,5.64
2018-09-26T03:11:40.901Z,5.66
2018-09-26T03:14:10.682Z,5.72
2018-09-26T03:16:40.361Z,5.77
2018-09-26T03:19:10.189Z,5.75
2018-09-26T03:21:39.845Z,5.66
2018-09-26T03:24:09.489Z,5.54
2018-09-26T03:26:39.233Z,5.53
2018-09-26T03:29:09.115Z,5.49
2018-09-26T03:31:38.816Z,5.44
2018-09-26T03:34:08.698Z,5.51
2018-09-26T03:36:38.385Z,5.50
2018-09-26T03:39:09.070Z,5.62
2018-09-26T03:41:38.823Z,5.64
2018-09-26T03:44:08.514Z,5.69
2018-09-26T03:46:38.244Z,5.79
2018-09-26T03:49:08.046Z,5.93
2018-09-26T03:51:37.704Z,5.90
2018-09-26T03:54:07.540Z,5.80
2018-09-26T03:56:37.333Z,5.75
2018-09-26T03:59:07.458Z,5.64
2018-09-26T04:01:37.209Z,5.53
2018-09-26T04:04:06.976Z,5.54
2018-09-26T04:06:36.745Z,5.64
2018-09-26T04:09:08.828Z,5.62
2018-09-26T04:11:38.560Z,5.56
2018-09-26T04:14:08.340Z,5.57
2018-09-26T04:16:38.285Z,5.74
2018-09-26T04:19:08.063Z,5.75
2018-09-26T04:21:37.750Z,5.87
2018-09-26T04:24:07.624Z,5.99
2018-09-26T04:26:37.576Z,6.11
2018-09-26T04:29:07.234Z,6.08
2018-09-26T04:31:36.934Z,6.06
2018-09-26T04:34:06.857Z,6.14
2018-09-26T04:36:36.562Z,6.25
2018-09-26T04:39:10.709Z,6.25
2018-09-26T04:41:40.955Z,6.20
2018-09-26T04:44:10.853Z,6.27
2018-09-26T04:46:40.629Z,6.41
2018-09-26T04:49:10.437Z,6.34
2018-09-26T04:51:40.139Z,6.51
2018-09-26T04:54:10.474Z,6.59
2018-09-26T04:56:40.937Z,6.47
2018-09-26T04:59:10.626Z,6.48
2018-09-26T05:01:40.334Z,6.46
2018-09-26T05:04:10.243Z,6.57
2018-09-26T05:06:39.877Z,6.49
2018-09-26T05:09:11.215Z,6.44
2018-09-26T05:11:40.986Z,6.56
2018-09-26T05:14:10.659Z,6.66
2018-09-26T05:16:40.313Z,6.58
2018-09-26T05:19:10.287Z,6.64
2018-09-26T05:21:39.991Z,6.52
2018-09-26T05:24:09.891Z,6.49
2018-09-26T05:26:40.284Z,6.41
2018-09-26T05:29:10.228Z,6.42
2018-09-26T05:31:39.872Z,6.59
2018-09-26T05:34:09.593Z,6.63
2018-09-26T05:36:39.257Z,6.77
2018-09-26T05:39:11.928Z,6.80
2018-09-26T05:41:41.720Z,6.89
2018-09-26T05:44:11.498Z,6.98
2018-09-26T05:46:41.250Z,7.07
2018-09-26T05:49:11.026Z,7.12
2018-09-26T05:51:41.165Z,7.05
2018-09-26T05:54:10.769Z,6.97
2018-09-26T05:56:40.489Z,6.86
2018-09-26T05:59:10.383Z,6.86
2018-09-26T06:01:40.130Z,6.96
2018-09-26T06:04:09.794Z,7.33
2018-09-26T06:06:39.465Z,7.53
2018-09-26T06:09:13.090Z,7.63
2018-09-26T06:11:43.281Z,7.58
2018-09-26T06:14:13.526Z,7.61
2018-09-26T06:16:43.260Z,7.74
2018-09-26T06:19:12.935Z,7.83
2018-09-26T06:21:42.720Z,7.95
2018-09-26T06:24:12.582Z,8.15
2018-09-26T06:26:42.352Z,8.29
2018-09-26T06:29:12.020Z,8.40
2018-09-26T06:31:41.648Z,8.64
2018-09-26T06:34:11.389Z,8.71
2018-09-26T06:36:41.026Z,8.88
2018-09-26T06:39:12.286Z,9.00
2018-09-26T06:41:42.409Z,9.09
2018-09-26T06:44:12.257Z,9.31
2018-09-26T06:46:41.981Z,9.54
2018-09-26T06:49:11.876Z,9.73
2018-09-26T06:51:42.498Z,9.68
2018-09-26T06:54:12.221Z,9.71
2018-09-26T06:56:42.080Z,9.85
2018-09-26T06:59:11.925Z,9.85
2018-09-26T07:01:41.618Z,9.67
2018-09-26T07:04:11.257Z,9.95
2018-09-26T07:06:40.921Z,9.90
2018-09-26T07:09:11.465Z,9.80
2018-09-26T07:11:41.308Z,9.99
2018-09-26T07:14:11.193Z,10.14
2018-09-26T07:16:40.852Z,9.97
2018-09-26T07:19:10.652Z,10.21
2018-09-26T07:21:40.401Z,10.50
2018-09-26T07:24:10.089Z,10.57
2018-09-26T07:26:40.042Z,10.60
2018-09-26T07:29:09.906Z,10.70
2018-09-26T07:31:39.660Z,10.76
2018-09-26T07:34:09.636Z,10.74
2018-09-26T07:36:39.698Z,11.15
2018-09-26T07:39:11.973Z,11.22
2018-09-26T07:41:41.698Z,11.28
2018-09-26T07:44:11.390Z,11.50
2018-09-26T07:46:41.066Z,11.37
2018-09-26T07:49:10.937Z,11.48
2018-09-26T07:51:40.631Z,11.66
2018-09-26T07:54:10.385Z,11.75
2018-09-26T07:56:40.055Z,11.80
2018-09-26T07:59:10.046Z,11.93
2018-09-26T08:01:39.820Z,11.90
2018-09-26T08:04:09.636Z,12.03
2018-09-26T08:06:39.334Z,12.16
2018-09-26T08:09:10.161Z,12.33
2018-09-26T08:11:40.052Z,12.23
2018-09-26T08:14:09.820Z,12.41
2018-09-26T08:16:39.499Z,12.77
2018-09-26T08:19:09.689Z,12.70
2018-09-26T08:21:39.494Z,13.07
2018-09-26T08:24:09.286Z,13.10
2018-09-26T08:26:38.833Z,13.15
2018-09-26T08:29:08.617Z,12.87
2018-09-26T08:31:38.405Z,13.08
2018-09-26T08:34:08.229Z,13.08
2018-09-26T08:36:37.977Z,13.25
2018-09-26T08:39:11.597Z,13.19
2018-09-26T08:41:41.288Z,13.53
2018-09-26T08:44:11.477Z,13.91
2018-09-26T08:46:41.525Z,13.45
2018-09-26T08:49:11.278Z,13.40
2018-09-26T08:51:40.998Z,13.45
2018-09-26T08:54:10.738Z,13.88
2018-09-26T08:56:40.454Z,14.05
2018-09-26T08:59:10.222Z,14.33
2018-09-26T09:01:46.855Z,14.17
2018-09-26T09:04:17.904Z,15.20
2018-09-26T09:06:47.906Z,15.42
2018-09-26T09:09:17.584Z,15.93
2018-09-26T09:11:47.324Z,16.62
2018-09-26T09:14:17.022Z,16.55
2018-09-26T09:16:46.734Z,17.25
2018-09-26T09:19:16.505Z,18.44
2018-09-26T09:21:46.310Z,18.23
2018-09-26T09:24:16.072Z,18.72
2018-09-26T09:26:45.784Z,18.68
2018-09-26T09:29:15.648Z,19.56
2018-09-26T09:31:45.321Z,19.35
2018-09-26T09:34:15.196Z,19.94
2018-09-26T09:36:44.914Z,20.22
2018-09-26T09:39:14.657Z,19.75
2018-09-26T09:41:44.386Z,19.58
2018-09-26T09:44:14.184Z,19.79
2018-09-26T09:46:43.861Z,19.86
2018-09-26T09:49:13.612Z,19.43
2018-09-26T09:51:43.472Z,19.61
2018-09-26T09:54:13.151Z,20.73
2018-09-26T09:56:43.109Z,19.84
2018-09-26T09:59:12.772Z,19.34
2018-09-26T10:01:42.567Z,18.97
2018-09-26T10:04:12.248Z,17.69
2018-09-26T10:06:42.061Z,17.80
2018-09-26T10:09:11.712Z,18.24
2018-09-26T10:11:41.376Z,18.37
2018-09-26T10:14:11.238Z,17.46
2018-09-26T10:16:40.940Z,17.13
2018-09-26T10:19:10.781Z,17.19
2018-09-26T10:21:40.610Z,17.80
2018-09-26T10:24:10.316Z,17.93
2018-09-26T10:26:40.031Z,18.41
2018-09-26T10:29:09.839Z,19.45
2018-09-26T10:31:39.568Z,20.52
2018-09-26T10:34:09.322Z,20.48
2018-09-26T10:36:38.902Z,21.40
2018-09-26T10:39:10.237Z,21.86
2018-09-26T10:41:39.925Z,21.65
2018-09-26T10:44:09.550Z,21.29
2018-09-26T10:46:39.338Z,20.85
2018-09-26T10:49:09.126Z,21.82
2018-09-26T10:51:38.793Z,22.11
2018-09-26T10:54:08.798Z,21.69
2018-09-26T10:56:38.535Z,22.18
2018-09-26T10:59:08.214Z,21.62
2018-09-26T11:01:37.898Z,22.08
2018-09-26T11:04:07.959Z,22.34
2018-09-26T11:06:37.794Z,23.15
2018-09-26T11:09:09.822Z,23.39
2018-09-26T11:11:39.451Z,22.05
2018-09-26T11:14:09.145Z,20.69
2018-09-26T11:16:38.813Z,19.70
2018-09-26T11:19:08.494Z,19.73
2018-09-26T11:21:38.262Z,20.97
2018-09-26T11:24:07.863Z,21.80
2018-09-26T11:26:37.601Z,22.30
2018-09-26T11:29:07.288Z,22.19
2018-09-26T11:31:37.072Z,23.11
2018-09-26T11:34:06.842Z,22.42
2018-09-26T11:36:36.445Z,22.35
2018-09-26T11:39:08.777Z,22.56
2018-09-26T11:41:38.477Z,23.03
2018-09-26T11:44:08.551Z,22.90
2018-09-26T11:46:38.299Z,22.29
2018-09-26T11:49:08.372Z,22.52
2018-09-26T11:51:37.990Z,22.51
2018-09-26T11:54:07.746Z,22.72
2018-09-26T11:56:37.374Z,22.47
2018-09-26T11:59:07.542Z,21.89
2018-09-26T12:01:37.324Z,22.45
2018-09-26T12:04:06.992Z,22.76
2018-09-26T12:06:36.699Z,22.49
2018-09-26T12:09:08.577Z,22.07
2018-09-26T12:11:38.237Z,22.77
2018-09-26T12:14:07.969Z,22.45
2018-09-26T12:16:37.585Z,23.20
2018-09-26T12:19:07.427Z,22.83
2018-09-26T12:21:37.085Z,22.67
2018-09-26T12:24:06.809Z,22.67
2018-09-26T12:26:36.571Z,22.86
2018-09-26T12:29:06.258Z,22.76
2018-09-26T12:31:35.916Z,22.22
2018-09-26T12:34:06.056Z,22.50
2018-09-26T12:36:35.687Z,22.47
2018-09-26T12:39:07.738Z,22.27
2018-09-26T12:41:37.490Z,21.94
2018-09-26T12:44:07.374Z,22.25
2018-09-26T12:46:37.205Z,21.61
2018-09-26T12:49:06.884Z,22.25
2018-09-26T12:51:36.474Z,21.91
2018-09-26T12:54:06.281Z,21.60
2018-09-26T12:56:35.948Z,21.73
2018-09-26T12:59:05.762Z,21.54
2018-09-26T13:01:35.402Z,22.45
2018-09-26T13:04:05.240Z,21.97
2018-09-26T13:06:34.949Z,22.38
2018-09-26T13:09:05.487Z,22.49
2018-09-26T13:11:35.359Z,22.64
2018-09-26T13:14:05.313Z,22.62
2018-09-26T13:16:34.930Z,22.63
2018-09-26T13:19:04.783Z,23.02
2018-09-26T13:21:35.115Z,22.85
2018-09-26T13:24:04.776Z,22.57
2018-09-26T13:26:35.018Z,22.51
2018-09-26T13:29:05.731Z,22.45
2018-09-26T13:31:35.391Z,22.66
2018-09-26T13:34:05.077Z,22.76
2018-09-26T13:36:34.765Z,22.93
2018-09-26T13:39:07.974Z,23.07
2018-09-26T13:41:39.091Z,22.88
2018-09-26T13:44:09.166Z,22.73
2018-09-26T13:46:39.464Z,21.96
2018-09-26T13:49:09.077Z,22.46
2018-09-26T13:51:38.906Z,22.82
2018-09-26T13:54:08.659Z,22.80
2018-09-26T13:56:38.637Z,22.31
2018-09-26T13:59:08.384Z,22.62
2018-09-26T14:01:38.428Z,22.72
2018-09-26T14:04:08.200Z,22.82
2018-09-26T14:06:37.840Z,22.51
2018-09-26T14:09:08.514Z,22.43
2018-09-26T14:11:38.318Z,22.91
2018-09-26T14:14:08.483Z,22.98
2018-09-26T14:16:38.316Z,22.56
2018-09-26T14:19:08.838Z,22.73
2018-09-26T14:21:39.616Z,22.63
2018-09-26T14:24:09.447Z,22.93
2018-09-26T14:26:41.435Z,22.58
2018-09-26T14:29:11.139Z,22.96
2018-09-26T14:31:40.754Z,23.15
2018-09-26T14:34:10.596Z,22.97
2018-09-26T14:36:40.350Z,23.33
2018-09-26T14:39:10.106Z,22.93
2018-09-26T14:41:40.830Z,23.22
2018-09-26T14:44:10.972Z,23.06
2018-09-26T14:46:40.630Z,22.98
2018-09-26T14:49:10.966Z,23.16
2018-09-26T14:51:40.924Z,22.70
2018-09-26T14:54:10.673Z,23.02
2018-09-26T14:56:40.407Z,23.43
2018-09-26T14:59:10.042Z,23.26
2018-09-26T15:01:39.781Z,22.66
2018-09-26T15:04:09.562Z,22.79
2018-09-26T15:06:39.384Z,23.64
2018-09-26T15:09:09.272Z,23.95
2018-09-26T15:11:39.190Z,23.99
2018-09-26T15:14:08.901Z,23.86
2018-09-26T15:16:38.623Z,23.62
2018-09-26T15:19:09.022Z,23.45
2018-09-26T15:21:38.691Z,23.37
2018-09-26T15:24:08.544Z,22.25
2018-09-26T15:26:38.249Z,22.13
2018-09-26T15:29:08.128Z,22.37
2018-09-26T15:31:37.815Z,22.55
2018-09-26T15:34:07.702Z,22.46
2018-09-26T15:36:37.335Z,22.52
2018-09-26T15:39:09.917Z,22.48
2018-09-26T15:41:40.094Z,23.57
2018-09-26T15:44:09.805Z,23.23
2018-09-26T15:46:39.494Z,22.94
2018-09-26T15:49:09.214Z,23.56
2018-09-26T15:51:38.851Z,22.90
2018-09-26T15:54:09.112Z,22.01
2018-09-26T15:56:38.818Z,22.22
2018-09-26T15:59:08.492Z,22.39
2018-09-26T16:01:38.161Z,22.23
2018-09-26T16:04:07.903Z,21.99
2018-09-26T16:06:37.578Z,22.02
2018-09-26T16:09:07.540Z,21.16
2018-09-26T16:11:37.310Z,20.47
2018-09-26T16:14:06.955Z,19.73
2018-09-26T16:16:36.767Z,19.43
2018-09-26T16:19:06.496Z,19.28
2018-09-26T16:21:36.141Z,18.83
2018-09-26T16:24:05.917Z,18.63
2018-09-26T16:26:35.537Z,18.55
2018-09-26T16:29:05.315Z,18.34
2018-09-26T16:31:34.961Z,18.13
2018-09-26T16:34:04.598Z,17.93
2018-09-26T16:36:34.445Z,17.81
2018-09-26T16:39:05.911Z,17.79
2018-09-26T16:41:35.949Z,17.65
2018-09-26T16:44:05.634Z,17.59
2018-09-26T16:46:35.550Z,17.34
2018-09-26T16:49:05.386Z,17.22
2018-09-26T16:51:35.094Z,17.02
2018-09-26T16:54:04.791Z,16.87
2018-09-26T16:56:34.584Z,16.75
2018-09-26T16:59:04.627Z,16.63
2018-09-26T17:01:34.343Z,16.41
2018-09-26T17:04:03.996Z,16.15
2018-09-26T17:06:33.725Z,15.88
2018-09-26T17:09:03.900Z,15.62
2018-09-26T17:11:33.638Z,15.36
2018-09-26T17:14:03.278Z,15.13
2018-09-26T17:16:32.987Z,14.93
2018-09-26T17:19:02.707Z,14.71
2018-09-26T17:21:32.740Z,14.53
2018-09-26T17:24:02.579Z,14.37
2018-09-26T17:26:32.399Z,14.21
2018-09-26T17:29:02.013Z,14.10
2018-09-26T17:31:31.746Z,13.93
2018-09-26T17:34:02.310Z,13.78
2018-09-26T17:36:32.128Z,13.69
2018-09-26T17:39:01.899Z,13.56
2018-09-26T17:41:31.663Z,13.50
2018-09-26T17:44:01.393Z,13.28
2018-09-26T17:46:31.348Z,13.15
2018-09-26T17:49:01.151Z,13.01
2018-09-26T17:51:31.293Z,12.87
2018-09-26T17:54:01.064Z,12.76
2018-09-26T17:56:30.836Z,12.69
2018-09-26T17:59:00.620Z,12.53
2018-09-26T18:01:30.377Z,12.51
2018-09-26T18:04:00.035Z,12.45
2018-09-26T18:06:29.758Z,12.33
2018-09-26T18:08:59.630Z,12.27
2018-09-26T18:11:29.283Z,12.20
2018-09-26T18:13:59.077Z,12.18
2018-09-26T18:16:28.744Z,11.96
2018-09-26T18:18:58.507Z,11.91
2018-09-26T18:21:28.229Z,11.78
2018-09-26T18:23:58.100Z,11.79
2018-09-26T18:26:27.776Z,11.69
2018-09-26T18:28:57.612Z,11.57
2018-09-26T18:31:27.290Z,11.54
2018-09-26T18:33:57.047Z,11.51
2018-09-26T18:36:26.725Z,11.43
2018-09-26T18:38:56.712Z,11.43
2018-09-26T18:41:26.670Z,11.31
2018-09-26T18:43:56.455Z,11.27
2018-09-26T18:46:26.469Z,11.25
2018-09-26T18:48:56.235Z,11.20
2018-09-26T18:51:26.032Z,11.36
2018-09-26T18:53:55.849Z,11.16
2018-09-26T18:56:25.811Z,11.09
2018-09-26T18:58:56.162Z,11.08
2018-09-26T19:01:25.925Z,11.08
2018-09-26T19:03:56.888Z,10.99
2018-09-26T19:06:27.489Z,10.90
2018-09-26T19:08:57.731Z,10.86
2018-09-26T19:11:27.771Z,10.83
2018-09-26T19:13:58.966Z,10.76
2018-09-26T19:16:29.094Z,10.69
2018-09-26T19:18:59.101Z,10.63
2018-09-26T19:21:29.612Z,10.61
2018-09-26T19:24:00.447Z,10.50
2018-09-26T19:26:30.920Z,10.47
2018-09-26T19:29:01.739Z,10.41
2018-09-26T19:31:34.789Z,10.42
2018-09-26T19:34:04.942Z,10.39
2018-09-26T19:36:35.978Z,10.35
2018-09-26T19:39:10.618Z,10.28
2018-09-26T19:41:41.165Z,10.23
2018-09-26T19:44:11.426Z,10.27
2018-09-26T19:46:43.245Z,10.48
2018-09-26T19:49:12.895Z,10.52
2018-09-26T19:51:42.704Z,10.40
2018-09-26T19:54:12.711Z,10.30
2018-09-26T19:56:42.698Z,10.18
2018-09-26T19:59:12.514Z,10.08
2018-09-26T20:01:43.208Z,10.02
2018-09-26T20:04:12.905Z,10.03
2018-09-26T20:06:44.952Z,9.90
2018-09-26T20:09:14.718Z,9.88
2018-09-26T20:11:45.140Z,9.83
2018-09-26T20:14:15.711Z,9.82
2018-09-26T20:16:45.545Z,9.80
2018-09-26T20:19:15.448Z,9.75
2018-09-26T20:21:45.573Z,9.70
2018-09-26T20:24:15.459Z,9.60
2018-09-26T20:26:46.052Z,9.53
2018-09-26T20:29:15.944Z,9.48
2018-09-26T20:31:46.746Z,9.43
2018-09-26T20:34:17.463Z,9.44
2018-09-26T20:36:48.833Z,9.38
2018-09-26T20:39:18.545Z,9.33
2018-09-26T20:41:49.832Z,9.34
2018-09-26T20:44:20.060Z,9.30
2018-09-26T20:46:50.518Z,9.25
2018-09-26T20:49:21.142Z,9.21
2018-09-26T20:51:52.325Z,9.13
2018-09-26T20:54:22.439Z,9.08
2018-09-26T20:56:53.133Z,9.07
2018-09-26T20:59:24.274Z,9.04
2018-09-26T21:01:55.054Z,8.98
2018-09-26T21:04:25.138Z,8.94
2018-09-26T21:06:54.994Z,8.91
2018-09-26T21:09:24.760Z,8.88
2018-09-26T21:11:54.547Z,8.90
2018-09-26T21:14:24.084Z,8.89
2018-09-26T21:16:53.845Z,9.06
2018-09-26T21:19:23.482Z,9.13
2018-09-26T21:21:53.999Z,9.00
2018-09-26T21:24:24.670Z,8.95
2018-09-26T21:26:54.268Z,8.85
2018-09-26T21:29:24.021Z,8.81
2018-09-26T21:31:53.737Z,8.75
2018-09-26T21:34:23.407Z,8.68
2018-09-26T21:36:53.093Z,8.67
2018-09-26T21:39:22.759Z,8.57
2018-09-26T21:41:57.119Z,8.55
2018-09-26T21:44:26.897Z,8.62
2018-09-26T21:46:56.590Z,8.80
2018-09-26T21:49:26.417Z,8.90
2018-09-26T21:51:56.204Z,8.85
2018-09-26T21:54:25.946Z,8.72
2018-09-26T21:56:55.621Z,8.69
2018-09-26T21:59:25.459Z,8.63
2018-09-26T22:01:55.373Z,8.67
2018-09-26T22:04:25.354Z,8.68
2018-09-26T22:06:55.067Z,8.68
2018-09-26T22:09:25.021Z,8.70
2018-09-26T22:11:54.847Z,8.63
2018-09-26T22:14:24.758Z,8.55
2018-09-26T22:16:54.685Z,8.42
2018-09-26T22:19:24.522Z,8.39
2018-09-26T22:21:54.406Z,8.33
2018-09-26T22:24:24.256Z,8.33
2018-09-26T22:26:54.198Z,8.31
2018-09-26T22:29:23.992Z,8.35
2018-09-26T22:31:53.817Z,8.33
2018-09-26T22:34:23.868Z,8.30
2018-09-26T22:36:53.613Z,8.29
2018-09-26T22:39:23.512Z,8.29
2018-09-26T22:41:53.398Z,8.26
2018-09-26T22:44:23.239Z,8.23
2018-09-26T22:46:53.093Z,8.21
2018-09-26T22:49:22.850Z,8.20
2018-09-26T22:51:52.615Z,8.26
2018-09-26T22:54:22.404Z,8.23
2018-09-26T22:56:52.247Z,8.16
2018-09-26T22:59:22.145Z,8.18
2018-09-26T23:01:52.005Z,8.17
2018-09-26T23:04:22.071Z,8.18
2018-09-26T23:06:51.892Z,8.17
2018-09-26T23:09:21.731Z,8.18
2018-09-26T23:11:51.525Z,8.27
2018-09-26T23:14:21.334Z,8.34
2018-09-26T23:16:52.119Z,8.34
2018-09-26T23:19:21.849Z,8.40
2018-09-26T23:21:51.695Z,8.53
2018-09-26T23:24:21.445Z,8.58
2018-09-26T23:26:51.396Z,8.64
2018-09-26T23:29:21.173Z,8.61
2018-09-26T23:31:51.057Z,8.54
2018-09-26T23:34:20.982Z,8.57
2018-09-26T23:36:50.818Z,8.55
2018-09-26T23:39:20.577Z,8.49
2018-09-26T23:41:50.368Z,8.48
2018-09-26T23:44:20.144Z,8.52
2018-09-26T23:46:50.069Z,8.58
2018-09-26T23:49:19.855Z,8.53
2018-09-26T23:51:49.690Z,8.49
2018-09-26T23:54:19.894Z,8.40
2018-09-26T23:56:49.748Z,8.37
2018-09-26T23:59:19.728Z,8.38
